This is the latest recevied weather packets stored in our database for station/object KE5VT. If no packets are shown the sender has not sent any weather packets the latest 10 day(s).
| Time | Temp. | Humidity | Pressure | Rain* | Wind** | Luminosity | Snow |
|---|---|---|---|---|---|---|---|
| 1787433990 | 27.22° C | 78% | 1009.6 hPa | 0 mm | - | 78 W/m² | - |
| 1787433689 | 28.33° C | 76% | 1009.7 hPa | 0 mm | - | 65 W/m² | - |
| 1787433386 | 30.56° C | 69% | 1009.7 hPa | 0 mm | - | 122 W/m² | - |
| 1787433081 | 28.89° C | 72% | 1009.9 hPa | 0 mm | - | 432 W/m² | - |
| 1787432778 | 28.33° C | 75% | 1010.1 hPa | 0 mm | - | 392 W/m² | - |
| 1787432473 | 27.78° C | 78% | 1009.9 hPa | 0 mm | - | 193 W/m² | - |
| 1787432167 | 27.78° C | 76% | 1010 hPa | 0 mm | - | 182 W/m² | - |
| 1787431866 | 27.22° C | 77% | 1010.1 hPa | 0 mm | - | 249 W/m² | - |
| 1787431562 | 28.33° C | 76% | 1010.1 hPa | 0 mm | - | 174 W/m² | - |
| 1787431257 | 27.78° C | 75% | 1010.3 hPa | 0 mm | - | 482 W/m² | - |
| 1787430954 | 26.67° C | 79% | 1010.3 hPa | 0 mm | - | 187 W/m² | - |
| 1787430649 | 26.67° C | 81% | 1010.4 hPa | 0 mm | - | 159 W/m² | - |
| 1787430346 | 26.11° C | 81% | 1010.5 hPa | 0 mm | - | 148 W/m² | - |
| 1787430042 | 26.11° C | 81% | 1010.9 hPa | 0 mm | - | 104 W/m² | - |
| 1787429737 | 26.11° C | 81% | 1011 hPa | 0 mm | - | 116 W/m² | - |
| 1787429437 | 27.22° C | 79% | 1011 hPa | 0 mm | - | 121 W/m² | - |
| 1787429133 | 28.33° C | 75% | 1011 hPa | 0 mm | - | 157 W/m² | - |
| 1787428829 | 27.78° C | 77% | 1010.9 hPa | 0 mm | - | 223 W/m² | - |
| 1787428524 | 27.22° C | 77% | 1011.2 hPa | 0 mm | - | 198 W/m² | - |
| 1787428220 | 26.67° C | 79% | 1011.2 hPa | 0 mm | - | 236 W/m² | - |
| 1787427919 | 26.67° C | 79% | 1011 hPa | 0 mm | - | 257 W/m² | - |
| 1787427615 | 26.67° C | 80% | 1011.2 hPa | 0 mm | - | 484 W/m² | - |
| 1787427311 | 26.11° C | 81% | 1011.3 hPa | 0 mm | - | 261 W/m² | - |
| 1787427007 | 26.67° C | 80% | 1011.2 hPa | 0 mm | - | 302 W/m² | - |
| 1787426702 | 26.67° C | 80% | 1011.2 hPa | 0 mm | - | 383 W/m² | - |
* Rain latest hour (hover to see other rain measurements)
** Current wind speed in m/s (hover to see current wind gust speed)